Time;durP1;ratioP1;P1;durP2;ratioP2;P2;SDS_P1;SDS_P2;PMS_P1;PMS_P2;Temp;Humidity;BMP_temperature;BMP_pressure;BME280_temperature;BME280_humidity;BME280_pressure;Samples;Min_cycle;Max_cycle;Signal;HPM_P1;HPM_P2
2021/07/16 00:01:47;;;;;;;18.87;7.17;;;;;;;20.31;82.01;101389.25;5070799;28;20028;-78
2021/07/16 00:04:12;;;;;;;15.77;7.07;;;;;;;20.18;82.87;101392.78;5069490;28;20441;-77
2021/07/16 00:06:38;;;;;;;14.53;7.80;;;;;;;20.11;83.16;101395.53;5052770;28;20147;-78
2021/07/16 00:09:05;;;;;;;15.15;6.28;;;;;;;20.17;82.96;101393.84;5070572;28;20036;-78
2021/07/16 00:11:31;;;;;;;19.48;7.70;;;;;;;20.10;82.80;101393.03;5052501;28;20025;-78
2021/07/16 00:13:56;;;;;;;16.63;6.63;;;;;;;20.10;82.96;101391.13;5052624;28;20603;-79
2021/07/16 00:16:21;;;;;;;18.63;7.17;;;;;;;20.04;83.12;101394.69;5068594;28;20051;-78
2021/07/16 00:18:47;;;;;;;20.17;7.33;;;;;;;20.12;83.11;101437.03;5069273;28;20032;-77
2021/07/16 00:21:13;;;;;;;17.67;6.70;;;;;;;20.14;82.83;101427.63;5069342;28;20063;-78
2021/07/16 00:23:38;;;;;;;17.30;6.78;;;;;;;20.00;83.46;101404.28;5052564;28;20047;-77
2021/07/16 00:26:04;;;;;;;18.13;7.33;;;;;;;19.98;83.49;101406.38;5069903;28;20020;-78
2021/07/16 00:28:29;;;;;;;15.35;7.07;;;;;;;19.82;83.75;101394.91;5052668;28;20385;-78
2021/07/16 00:30:55;;;;;;;15.43;6.40;;;;;;;19.82;84.25;101392.19;5069115;28;20036;-78
2021/07/16 00:33:20;;;;;;;23.17;6.40;;;;;;;19.89;83.78;101489.75;5052405;28;20021;-78
2021/07/16 00:35:45;;;;;;;14.97;6.43;;;;;;;19.75;84.31;101464.50;5068925;28;20040;-78
2021/07/16 00:38:12;;;;;;;29.10;7.33;;;;;;;19.86;84.12;101464.94;5069027;28;20044;-78
2021/07/16 00:40:38;;;;;;;15.98;6.47;;;;;;;19.79;83.89;101438.66;5068495;28;20032;-77
2021/07/16 00:43:04;;;;;;;18.90;7.55;;;;;;;19.70;84.69;101437.19;5051976;28;20370;-78
2021/07/16 00:45:29;;;;;;;23.47;7.10;;;;;;;19.59;85.75;101429.63;5069317;28;20081;-78
2021/07/16 00:47:54;;;;;;;18.00;7.90;;;;;;;19.64;85.55;101461.53;5068181;28;20441;-78
2021/07/16 00:50:31;;;;;;;17.60;7.27;;;;;;;19.53;85.58;101441.31;5068977;28;20115;-77
2021/07/16 00:52:57;;;;;;;15.82;7.63;;;;;;;19.56;85.83;101438.19;5068619;28;20079;-77
2021/07/16 00:55:23;;;;;;;19.73;7.70;;;;;;;19.46;85.69;101432.34;5051977;28;20059;-77
2021/07/16 00:57:49;;;;;;;13.38;5.95;;;;;;;19.50;85.28;101445.25;5068486;28;20036;-78
2021/07/16 01:00:15;;;;;;;18.77;7.57;;;;;;;19.47;85.40;101434.00;5068944;28;20036;-77
2021/07/16 01:02:40;;;;;;;16.52;6.85;;;;;;;19.44;85.50;101426.28;5051768;28;20446;-77
2021/07/16 01:05:07;;;;;;;22.20;7.37;;;;;;;19.43;85.44;101430.03;5068823;28;20119;-77
2021/07/16 01:07:33;;;;;;;24.48;8.77;;;;;;;19.22;85.94;101420.16;5066960;28;20039;-77
2021/07/16 01:10:00;;;;;;;19.35;7.72;;;;;;;19.27;86.34;101434.78;5052511;28;20025;-77
2021/07/16 01:12:28;;;;;;;19.13;7.00;;;;;;;19.35;86.27;101488.72;5070419;28;20404;-77
2021/07/16 01:14:53;;;;;;;19.60;7.95;;;;;;;19.27;86.12;101556.59;5052832;28;20028;-77
2021/07/16 01:17:19;;;;;;;27.83;7.68;;;;;;;19.22;86.01;101537.38;5070032;28;20054;-77
2021/07/16 01:19:57;;;;;;;22.43;7.53;;;;;;;19.24;86.42;101535.31;5070631;28;20476;-78
2021/07/16 01:22:26;;;;;;;17.27;7.25;;;;;;;19.16;86.39;101520.09;5069286;28;20085;-78
2021/07/16 01:24:52;;;;;;;20.35;6.88;;;;;;;19.19;86.10;101516.97;5069266;28;20369;-78
2021/07/16 01:27:19;;;;;;;14.10;7.20;;;;;;;19.04;86.84;101510.88;5052459;28;20029;-77
2021/07/16 01:29:46;;;;;;;21.42;8.02;;;;;;;19.04;87.38;101778.78;5069669;28;20037;-78
2021/07/16 01:32:11;;;;;;;22.17;8.75;;;;;;;19.09;86.46;101553.59;5069389;28;20028;-78
2021/07/16 01:34:37;;;;;;;15.23;7.00;;;;;;;19.17;85.73;101577.75;5069402;28;20036;-78
2021/07/16 01:37:02;;;;;;;28.00;8.47;;;;;;;19.07;85.94;101563.75;5070092;28;20483;-78
2021/07/16 01:39:29;;;;;;;22.17;8.85;;;;;;;19.11;85.92;101567.75;5069354;28;20274;-78
2021/07/16 01:41:54;;;;;;;17.35;7.63;;;;;;;19.04;86.19;101559.59;5070266;28;20122;-77
2021/07/16 01:44:19;;;;;;;14.53;6.67;;;;;;;19.00;86.29;101547.47;5069345;28;20182;-78
2021/07/16 01:46:45;;;;;;;21.30;7.53;;;;;;;19.03;86.15;101554.38;5069117;28;20074;-77
2021/07/16 01:49:10;;;;;;;24.17;6.90;;;;;;;18.89;86.50;101543.44;5069362;28;20051;-77
2021/07/16 01:51:35;;;;;;;26.03;7.60;;;;;;;18.86;86.78;101737.81;5052480;28;20040;-77
2021/07/16 01:54:01;;;;;;;19.27;8.20;;;;;;;18.82;86.57;101501.16;5069881;28;20190;-77
2021/07/16 01:56:26;;;;;;;19.90;8.10;;;;;;;18.80;86.67;101563.59;5052003;28;20101;-78
2021/07/16 01:58:52;;;;;;;14.20;6.67;;;;;;;18.83;86.99;101565.91;5070744;28;20033;-78
2021/07/16 02:01:20;;;;;;;22.92;7.35;;;;;;;18.71;87.54;101543.94;5073333;28;20035;-77
2021/07/16 02:03:45;;;;;;;13.70;6.95;;;;;;;18.70;87.22;101539.53;5072994;28;20118;-81
2021/07/16 02:06:13;;;;;;;27.70;8.53;;;;;;;18.67;87.36;101541.81;5073495;28;20094;-78
2021/07/16 02:08:40;;;;;;;21.30;8.65;;;;;;;18.62;87.79;101574.03;5056236;28;20043;-78
2021/07/16 02:11:06;;;;;;;25.08;8.00;;;;;;;18.46;88.25;101589.47;5073216;28;20047;-78
2021/07/16 02:13:32;;;;;;;22.05;7.65;;;;;;;18.57;87.32;101566.50;5056295;28;20050;-78
2021/07/16 02:15:57;;;;;;;17.73;7.43;;;;;;;18.58;87.38;101583.56;5073636;28;20032;-77
2021/07/16 02:18:23;;;;;;;22.00;8.70;;;;;;;18.53;87.30;101590.38;5073668;28;20067;-77
2021/07/16 02:20:52;;;;;;;25.00;8.15;;;;;;;18.50;87.72;101582.66;5072633;28;20727;-78
2021/07/16 02:23:20;;;;;;;22.13;8.15;;;;;;;18.53;87.47;101557.94;5072784;28;20085;-77
2021/07/16 02:25:46;;;;;;;23.95;9.15;;;;;;;18.42;87.42;101550.34;5073403;28;20040;-77
2021/07/16 02:28:15;;;;;;;28.75;8.40;;;;;;;18.45;87.66;101541.88;5072932;28;20086;-77
2021/07/16 02:30:40;;;;;;;18.15;6.68;;;;;;;18.43;87.92;101554.75;5072762;28;20040;-78
2021/07/16 02:33:06;;;;;;;21.27;8.90;;;;;;;18.43;87.92;101545.81;5072654;28;20040;-77
2021/07/16 02:35:32;;;;;;;17.17;8.17;;;;;;;18.40;87.75;101549.69;5072536;28;20283;-78
2021/07/16 02:38:00;;;;;;;21.25;8.80;;;;;;;18.35;87.89;101535.94;5055632;28;20039;-78
2021/07/16 02:40:26;;;;;;;18.08;7.30;;;;;;;18.38;87.78;101545.53;5072580;28;20041;-78
2021/07/16 02:42:51;;;;;;;20.58;7.40;;;;;;;18.27;88.38;101625.28;5073241;28;20036;-77
2021/07/16 02:45:19;;;;;;;16.13;7.50;;;;;;;18.32;88.20;101612.03;5072213;28;20040;-78
2021/07/16 02:47:45;;;;;;;22.73;6.68;;;;;;;18.43;87.80;101641.25;5072033;28;20028;-78
2021/07/16 02:50:16;;;;;;;18.27;7.83;;;;;;;18.43;87.72;101606.09;5072212;28;20456;-78
2021/07/16 02:52:42;;;;;;;19.92;8.27;;;;;;;18.41;87.90;101589.25;5072910;28;20050;-77
2021/07/16 02:55:09;;;;;;;16.83;6.93;;;;;;;18.39;88.01;101560.72;5072071;28;20020;-78
2021/07/16 02:57:34;;;;;;;17.55;7.03;;;;;;;18.36;88.32;101586.28;5071988;28;20028;-78
2021/07/16 03:00:00;;;;;;;21.37;8.17;;;;;;;18.34;88.45;101577.53;5071995;28;20513;-78
2021/07/16 03:02:29;;;;;;;22.80;9.07;;;;;;;18.24;88.79;101553.53;5071970;28;20279;-77
2021/07/16 03:04:56;;;;;;;24.83;8.73;;;;;;;18.37;87.63;101570.91;5071823;28;20032;-78
2021/07/16 03:07:21;;;;;;;21.55;7.75;;;;;;;18.31;88.15;101557.13;5072785;28;20125;-77
2021/07/16 03:09:47;;;;;;;25.73;8.85;;;;;;;18.32;87.94;101561.50;5071668;28;20071;-78
2021/07/16 03:12:12;;;;;;;19.80;8.53;;;;;;;18.32;87.88;101569.59;5071846;28;20036;-77
2021/07/16 03:14:38;;;;;;;21.03;9.17;;;;;;;18.36;87.87;101624.13;5072592;28;20036;-78
2021/07/16 03:17:04;;;;;;;22.23;7.35;;;;;;;18.34;87.85;101583.75;5072473;28;20111;-78
2021/07/16 03:19:29;;;;;;;18.40;8.60;;;;;;;18.29;88.36;101561.06;5071599;28;20035;-77
2021/07/16 03:21:55;;;;;;;27.93;8.47;;;;;;;18.40;87.90;101576.72;5071682;28;20042;-78
2021/07/16 03:24:20;;;;;;;26.10;10.30;;;;;;;18.37;87.41;101560.91;5071377;28;20623;-78
2021/07/16 03:26:46;;;;;;;23.33;8.10;;;;;;;18.38;87.78;101565.31;5072397;28;20093;-78
2021/07/16 03:29:12;;;;;;;24.87;7.33;;;;;;;18.47;87.52;101577.66;5054797;28;20036;-77
2021/07/16 03:31:38;;;;;;;19.50;7.70;;;;;;;18.42;86.86;101571.97;5071410;28;20040;-77
2021/07/16 03:34:03;;;;;;;27.63;9.50;;;;;;;18.47;86.82;101612.81;5072189;28;20028;-78
2021/07/16 03:36:28;;;;;;;26.73;7.70;;;;;;;18.43;86.90;101586.34;5072069;28;20049;-77
2021/07/16 03:38:54;;;;;;;20.93;7.83;;;;;;;18.52;87.35;101602.25;5071294;28;20028;-78
2021/07/16 03:41:19;;;;;;;21.97;8.37;;;;;;;18.64;87.30;101604.44;5071078;28;20090;-78
2021/07/16 03:43:44;;;;;;;19.40;7.60;;;;;;;18.73;86.29;101600.53;5071071;28;20067;-77
2021/07/16 03:46:10;;;;;;;24.37;7.80;;;;;;;18.75;85.81;101590.34;5070553;28;20040;-77
2021/07/16 03:48:35;;;;;;;20.17;7.37;;;;;;;18.73;85.56;101587.00;5054415;28;20118;-77
2021/07/16 03:51:01;;;;;;;27.17;8.03;;;;;;;18.72;86.13;101597.00;5071055;28;20076;-78
2021/07/16 03:53:26;;;;;;;24.47;8.57;;;;;;;18.77;86.30;101604.53;5071952;28;20028;-77
2021/07/16 03:55:52;;;;;;;17.60;7.37;;;;;;;18.69;86.23;101588.44;5070480;28;20267;-78
2021/07/16 03:58:17;;;;;;;18.80;7.63;;;;;;;18.77;85.71;101615.38;5070888;28;20510;-78
2021/07/16 04:00:42;;;;;;;26.07;7.37;;;;;;;18.75;86.27;101622.81;5070761;28;20040;-77
2021/07/16 04:03:08;;;;;;;32.50;8.47;;;;;;;18.83;85.44;101605.66;5070719;28;20036;-78
2021/07/16 04:05:34;;;;;;;31.03;8.50;;;;;;;18.85;85.39;101606.28;5070369;28;20036;-78
2021/07/16 04:08:05;;;;;;;24.13;7.80;;;;;;;18.85;85.92;101588.19;5071220;28;20047;-78
2021/07/16 04:10:35;;;;;;;20.88;7.93;;;;;;;18.98;85.38;101590.97;5071599;28;20111;-78
2021/07/16 04:13:04;;;;;;;23.48;7.32;;;;;;;19.03;84.51;101608.47;5070452;28;20040;-77
2021/07/16 04:15:29;;;;;;;19.00;7.80;;;;;;;18.91;84.56;101579.25;5053480;28;20032;-78
2021/07/16 04:17:57;;;;;;;25.15;7.90;;;;;;;19.05;84.72;101609.13;5071100;28;20106;-78
2021/07/16 04:20:24;;;;;;;30.83;8.65;;;;;;;19.04;84.12;101593.94;5070321;28;20068;-77
2021/07/16 04:22:49;;;;;;;28.38;9.40;;;;;;;18.86;84.99;101589.84;5069858;28;20033;-78
2021/07/16 04:25:17;;;;;;;32.57;8.83;;;;;;;19.02;85.01;101596.00;5070297;28;20400;-77
2021/07/16 04:27:43;;;;;;;30.60;10.07;;;;;;;18.95;84.65;101583.25;5053297;28;20429;-78
2021/07/16 04:30:13;;;;;;;31.40;10.05;;;;;;;19.00;84.40;101576.41;5070212;28;20079;-77
2021/07/16 04:32:40;;;;;;;30.00;9.85;;;;;;;19.00;85.02;101603.47;5069989;28;20036;-78
2021/07/16 04:35:06;;;;;;;30.98;8.45;;;;;;;18.98;84.70;101549.56;5053340;28;20123;-77
2021/07/16 04:37:31;;;;;;;;;;;;;;;19.07;84.03;101590.81;5070062;28;20659;-78
2021/07/16 04:39:57;;;;;;;18.70;8.38;;;;;;;19.04;85.02;101616.41;5070028;28;19991;-78
2021/07/16 04:42:22;;;;;;;22.00;8.37;;;;;;;19.06;84.38;101608.09;5070818;28;20458;-77
2021/07/16 04:44:49;;;;;;;26.30;9.47;;;;;;;19.19;84.65;101602.75;5053124;28;20424;-78
2021/07/16 04:47:14;;;;;;;23.60;8.65;;;;;;;19.18;84.50;101579.47;5070519;28;20060;-77
2021/07/16 04:49:40;;;;;;;17.90;6.73;;;;;;;19.36;83.63;101603.28;5070015;28;20056;-78
2021/07/16 04:52:05;;;;;;;24.53;7.73;;;;;;;19.29;83.23;101589.72;5069537;28;20125;-78
2021/07/16 04:54:30;;;;;;;21.23;6.77;;;;;;;19.30;83.15;101588.69;5069644;28;20666;-78
2021/07/16 04:56:56;;;;;;;18.87;7.27;;;;;;;19.37;83.58;101594.97;5069260;28;20037;-77
2021/07/16 04:59:21;;;;;;;20.07;7.30;;;;;;;19.42;82.52;101598.94;5070770;28;20039;-78
2021/07/16 05:01:48;;;;;;;22.60;8.80;;;;;;;19.53;82.00;101603.81;5069619;28;20114;-77
2021/07/16 05:04:15;;;;;;;16.23;6.90;;;;;;;19.56;83.45;101627.78;5052729;28;20028;-79
2021/07/16 05:06:40;;;;;;;22.88;7.28;;;;;;;19.88;80.87;101603.75;5069103;28;20537;-77
2021/07/16 05:09:05;;;;;;;30.67;8.83;;;;;;;19.82;80.03;101598.09;5070653;28;20048;-78
2021/07/16 05:11:31;;;;;;;29.07;9.83;;;;;;;19.75;80.42;101591.81;5052388;28;20051;-77
2021/07/16 05:13:57;;;;;;;21.38;7.53;;;;;;;19.92;80.81;101607.72;5051468;28;20030;-77
2021/07/16 05:16:22;;;;;;;15.57;6.07;;;;;;;20.25;79.96;101629.50;5069603;28;20028;-78
2021/07/16 05:18:47;;;;;;;24.67;6.57;;;;;;;20.21;79.66;101626.38;5069023;28;20344;-79
2021/07/16 05:21:13;;;;;;;21.70;7.03;;;;;;;20.60;77.36;101646.50;5070229;28;20024;-79
2021/07/16 05:23:40;;;;;;;19.92;7.15;;;;;;;20.58;75.72;101640.44;5069124;28;20028;-78
2021/07/16 05:26:05;;;;;;;21.75;7.30;;;;;;;20.58;76.83;101629.59;5052024;28;20070;-79
2021/07/16 05:28:31;;;;;;;16.67;6.37;;;;;;;20.61;74.74;101634.59;5069101;28;20131;-77
2021/07/16 05:30:56;;;;;;;16.43;6.90;;;;;;;20.54;77.42;101628.31;5052460;28;20453;-79
2021/07/16 05:33:22;;;;;;;15.25;6.50;;;;;;;20.50;75.98;101631.63;5068662;28;20471;-79
2021/07/16 05:35:48;;;;;;;15.10;6.45;;;;;;;20.60;76.23;101637.50;5068852;28;20089;-79
2021/07/16 05:38:13;;;;;;;20.70;8.13;;;;;;;20.39;77.45;101617.66;5068777;28;20036;-78
2021/07/16 05:40:39;;;;;;;18.83;7.60;;;;;;;20.45;76.71;101627.66;5070023;28;20115;-79
2021/07/16 05:43:06;;;;;;;32.70;9.57;;;;;;;20.36;77.55;101637.03;5069609;28;20454;-79
2021/07/16 05:45:31;;;;;;;16.73;6.82;;;;;;;20.82;75.54;101632.75;5052142;28;20040;-78
2021/07/16 05:47:59;;;;;;;16.17;6.65;;;;;;;20.85;74.75;101646.72;5068634;28;20032;-79
2021/07/16 05:50:24;;;;;;;25.17;7.93;;;;;;;21.36;73.90;101663.38;5068909;28;20040;-79
2021/07/16 05:52:50;;;;;;;15.03;5.17;;;;;;;22.15;71.46;101678.63;5069815;28;20037;-79
2021/07/16 05:55:15;;;;;;;22.57;7.17;;;;;;;22.58;67.82;101688.84;5051729;28;20036;-78
2021/07/16 05:57:41;;;;;;;20.85;6.35;;;;;;;23.00;67.21;101705.53;5068518;28;20044;-79
2021/07/16 06:00:07;;;;;;;16.83;7.43;;;;;;;23.49;63.80;101720.19;5068950;28;20036;-79
2021/07/16 06:02:37;;;;;;;13.20;4.88;;;;;;;23.13;65.24;101693.69;5069955;28;20039;-79
2021/07/16 06:05:03;;;;;;;14.50;4.88;;;;;;;23.36;65.62;101707.50;5068687;28;20048;-79
2021/07/16 06:07:28;;;;;;;25.13;6.40;;;;;;;23.55;64.09;101704.81;5068436;28;20033;-79
2021/07/16 06:09:54;;;;;;;19.80;7.10;;;;;;;23.59;64.21;101695.13;5051837;28;20024;-78
2021/07/16 06:12:21;;;;;;;20.63;6.70;;;;;;;23.41;65.23;101670.59;5069609;28;20282;-78
2021/07/16 06:14:47;;;;;;;17.17;6.20;;;;;;;23.01;65.33;101655.47;5068482;28;20068;-79
2021/07/16 06:17:12;;;;;;;19.10;7.23;;;;;;;22.43;68.37;101629.31;5067905;28;20136;-79
2021/07/16 06:19:37;;;;;;;31.80;7.70;;;;;;;22.09;68.70;101612.31;5069467;28;20040;-79
2021/07/16 06:22:03;;;;;;;21.57;7.30;;;;;;;21.80;69.85;101605.59;5068395;28;20131;-79
2021/07/16 06:24:29;;;;;;;21.38;7.38;;;;;;;21.83;69.87;101607.88;5069198;28;20036;-78
2021/07/16 06:26:55;;;;;;;20.58;7.90;;;;;;;22.01;70.08;101612.59;5069168;28;20461;-79
2021/07/16 06:29:20;;;;;;;19.30;6.50;;;;;;;22.32;68.82;101630.00;5068502;28;20040;-78
2021/07/16 06:31:45;;;;;;;18.33;6.57;;;;;;;23.14;66.51;101677.13;5068552;28;20036;-79
2021/07/16 06:34:10;;;;;;;27.00;6.17;;;;;;;23.01;64.97;101660.06;5069209;28;20103;-78
2021/07/16 06:36:36;;;;;;;15.77;6.37;;;;;;;22.92;65.98;101667.66;5069212;28;20128;-78
2021/07/16 06:39:02;;;;;;;21.40;6.60;;;;;;;23.50;64.84;101683.69;5068204;28;20060;-78
2021/07/16 06:41:28;;;;;;;19.60;6.60;;;;;;;22.30;67.24;101616.63;5067968;28;20028;-78
2021/07/16 06:43:54;;;;;;;18.17;7.00;;;;;;;22.75;66.70;101651.03;5068366;28;20043;-79
2021/07/16 06:46:19;;;;;;;20.67;7.40;;;;;;;23.41;65.17;101665.97;5071327;28;20198;-79
2021/07/16 06:48:46;;;;;;;19.03;6.70;;;;;;;23.99;62.98;101694.69;5055326;28;20713;-78
2021/07/16 06:51:12;;;;;;;13.13;6.22;;;;;;;24.28;62.67;101701.25;5071580;28;20047;-79
2021/07/16 06:53:38;;;;;;;16.65;6.63;;;;;;;24.94;60.72;101715.03;5072619;28;20066;-78
2021/07/16 06:56:04;;;;;;;20.75;6.95;;;;;;;24.92;60.60;101704.31;5071112;28;20555;-78
2021/07/16 06:58:30;;;;;;;18.05;6.75;;;;;;;24.73;61.61;101675.44;5072588;28;20064;-78
2021/07/16 07:00:55;;;;;;;20.07;7.27;;;;;;;24.97;60.62;101695.41;5055015;28;20461;-78
2021/07/16 07:03:25;;;;;;;28.70;7.43;;;;;;;25.54;59.08;101719.47;5070275;28;20040;-78
2021/07/16 07:05:52;;;;;;;20.13;7.18;;;;;;;25.98;59.38;101731.66;5069795;28;20763;-78
2021/07/16 07:08:17;;;;;;;24.63;6.78;;;;;;;25.97;59.51;101715.50;5054776;28;20029;-78
2021/07/16 07:10:43;;;;;;;21.77;5.40;;;;;;;26.67;56.32;101752.75;5071482;28;20035;-78
2021/07/16 07:13:09;;;;;;;12.38;5.55;;;;;;;26.71;57.71;101740.22;5072357;28;20068;-78
2021/07/16 07:15:36;;;;;;;;;;;;;;;26.19;59.36;101699.25;5071671;28;20033;-78
2021/07/16 07:18:05;;;;;;;21.65;6.53;;;;;;;26.58;55.66;101710.41;5070890;28;19927;-79
2021/07/16 07:20:30;;;;;;;15.93;6.47;;;;;;;25.97;56.92;101664.34;5054582;28;20128;-77
2021/07/16 07:22:56;;;;;;;15.38;5.85;;;;;;;25.89;57.89;101678.41;5071226;28;20412;-78
2021/07/16 07:25:21;;;;;;;21.33;7.57;;;;;;;25.90;59.31;101674.59;5071084;28;20074;-78
2021/07/16 07:27:47;;;;;;;26.17;7.17;;;;;;;26.06;58.47;101675.75;5070881;28;20579;-77
2021/07/16 07:30:13;;;;;;;14.07;5.00;;;;;;;26.81;56.01;101710.28;5072038;28;20274;-78
2021/07/16 07:32:38;;;;;;;17.15;5.75;;;;;;;27.05;56.33;101726.56;5070883;28;20087;-78
2021/07/16 07:35:07;;;;;;;17.38;6.28;;;;;;;27.26;55.26;101725.84;5071901;28;20048;-78
2021/07/16 07:37:32;;;;;;;14.18;5.78;;;;;;;27.68;54.90;101730.81;5071624;28;20033;-78
2021/07/16 07:39:58;;;;;;;21.85;7.10;;;;;;;27.78;53.99;101766.63;5071115;28;20460;-78
2021/07/16 07:42:25;;;;;;;14.30;5.43;;;;;;;27.12;54.45;101699.81;5070427;28;20067;-78
2021/07/16 07:44:51;;;;;;;17.02;5.72;;;;;;;26.60;57.14;101669.91;5071581;28;20127;-78
2021/07/16 07:47:17;;;;;;;;;;;;;;;26.38;57.77;101662.38;5070922;28;20029;-78
2021/07/16 07:49:42;;;;;;;18.13;5.88;;;;;;;25.74;60.05;101640.59;5070863;28;19908;-78
2021/07/16 07:52:07;;;;;;;17.55;5.95;;;;;;;25.37;59.86;101618.22;5070631;28;20032;-79
2021/07/16 07:54:33;;;;;;;16.85;5.63;;;;;;;25.77;59.75;101642.03;5070622;28;20137;-79
2021/07/16 07:56:59;;;;;;;19.75;6.90;;;;;;;26.44;57.64;101668.78;5069278;28;20564;-78
2021/07/16 07:59:25;;;;;;;16.08;6.05;;;;;;;26.75;57.65;101670.16;5070363;28;20032;-78
2021/07/16 08:01:50;;;;;;;16.08;5.55;;;;;;;26.74;55.98;101669.34;5070243;28;20101;-77
2021/07/16 08:04:16;;;;;;;19.38;6.70;;;;;;;26.15;57.07;101637.84;5071212;28;20387;-77
2021/07/16 08:06:41;;;;;;;17.85;6.47;;;;;;;26.09;57.38;101643.25;5069918;28;20033;-77
2021/07/16 08:09:06;;;;;;;12.33;5.43;;;;;;;26.50;57.74;101665.03;5052507;28;20085;-77
2021/07/16 08:11:32;;;;;;;24.87;6.43;;;;;;;27.10;56.01;101680.03;5052122;28;20044;-77
2021/07/16 08:13:58;;;;;;;17.83;5.70;;;;;;;26.70;57.60;101662.69;5068742;28;20278;-78
2021/07/16 08:16:24;;;;;;;14.57;6.80;;;;;;;26.86;56.33;101660.22;5068669;28;20040;-78
2021/07/16 08:18:49;;;;;;;15.43;6.00;;;;;;;26.85;57.00;101675.81;5070678;28;20076;-77
2021/07/16 08:21:14;;;;;;;15.40;5.78;;;;;;;27.02;55.00;101674.97;5069577;28;20077;-78
2021/07/16 08:23:40;;;;;;;18.53;6.20;;;;;;;26.75;56.38;101667.44;5069395;28;20074;-77
2021/07/16 08:26:05;;;;;;;22.57;6.80;;;;;;;26.87;55.55;101659.97;5069649;28;20043;-77
2021/07/16 08:28:32;;;;;;;13.63;5.50;;;;;;;27.18;55.38;101676.88;5069533;28;20283;-79
2021/07/16 08:30:58;;;;;;;14.52;5.60;;;;;;;27.31;55.61;101681.22;5071027;28;20298;-77
2021/07/16 08:33:23;;;;;;;12.48;6.55;;;;;;;27.63;53.99;101826.75;5070615;28;20071;-77
2021/07/16 08:35:48;;;;;;;12.50;5.32;;;;;;;27.76;53.71;101732.28;5070540;28;20045;-77
2021/07/16 08:38:14;;;;;;;18.15;5.80;;;;;;;28.49;51.91;101741.19;5070569;28;20086;-77
2021/07/16 08:40:40;;;;;;;14.60;6.57;;;;;;;28.64;51.93;101737.78;5070738;28;20036;-78
2021/07/16 08:43:06;;;;;;;15.38;5.70;;;;;;;28.14;52.75;101711.38;5068814;28;20051;-77
2021/07/16 08:45:31;;;;;;;18.88;7.47;;;;;;;28.48;51.88;101706.56;5069482;28;20020;-77
2021/07/16 08:47:57;;;;;;;17.25;6.03;;;;;;;28.72;52.45;101706.25;5069409;28;20108;-77
2021/07/16 08:50:23;;;;;;;14.18;6.70;;;;;;;28.80;49.50;101703.03;5069687;28;20384;-77
2021/07/16 08:52:49;;;;;;;20.95;7.35;;;;;;;27.97;53.39;101733.41;5069445;28;20020;-77
2021/07/16 08:55:15;;;;;;;16.88;6.85;;;;;;;28.37;53.09;101744.03;5070492;28;20028;-77
2021/07/16 08:57:41;;;;;;;21.02;5.93;;;;;;;27.72;54.80;101715.53;5069137;28;20114;-78
2021/07/16 09:00:12;;;;;;;19.38;6.00;;;;;;;28.06;52.90;101704.44;5053033;28;20326;-77
2021/07/16 09:02:51;;;;;;;20.88;5.70;;;;;;;28.73;50.96;101683.16;5052615;28;20489;-77
2021/07/16 09:05:17;;;;;;;19.55;6.05;;;;;;;28.08;51.80;101654.78;5052544;28;20086;-77
2021/07/16 09:07:47;;;;;;;17.48;5.70;;;;;;;29.31;50.50;101699.84;5052233;28;20559;-77
2021/07/16 09:10:12;;;;;;;23.10;6.30;;;;;;;29.84;48.44;101701.53;5069211;28;20040;-78
2021/07/16 09:12:39;;;;;;;17.30;6.18;;;;;;;29.69;48.71;101684.13;5069138;28;20078;-77
2021/07/16 09:15:15;;;;;;;19.85;6.50;;;;;;;29.10;49.50;101668.63;5070168;28;20366;-77
2021/07/16 09:17:46;;;;;;;10.60;4.63;;;;;;;29.80;48.68;101694.91;5068806;28;20039;-77
2021/07/16 09:20:26;;;;;;;15.95;6.63;;;;;;;28.30;50.50;101621.78;5069323;28;20036;-77
2021/07/16 09:23:10;;;;;;;18.27;6.88;;;;;;;26.75;55.18;101579.78;5069027;28;20048;-77
2021/07/16 09:25:38;;;;;;;17.10;6.72;;;;;;;26.48;56.69;101593.28;5052425;28;20036;-78
2021/07/16 09:28:03;;;;;;;18.15;6.55;;;;;;;28.24;53.16;101653.00;5068874;28;20445;-77
2021/07/16 09:30:30;;;;;;;21.55;6.90;;;;;;;28.08;51.95;101635.56;5070241;28;20032;-77
2021/07/16 09:33:09;;;;;;;16.92;6.88;;;;;;;29.08;49.90;101681.81;5052368;28;20044;-77
2021/07/16 09:35:39;;;;;;;14.57;5.72;;;;;;;29.00;51.27;101675.69;5069000;28;20082;-77
2021/07/16 09:38:13;;;;;;;19.15;6.63;;;;;;;29.64;49.73;101684.88;5069849;28;20044;-77
2021/07/16 09:40:49;;;;;;;17.95;6.82;;;;;;;30.25;47.32;101698.91;5069640;28;20028;-77
2021/07/16 09:43:17;;;;;;;14.68;6.40;;;;;;;30.16;49.73;101686.78;5069009;28;20032;-77
2021/07/16 09:46:04;;;;;;;13.77;7.13;;;;;;;30.50;47.38;101711.91;5068701;28;20420;-77
2021/07/16 09:48:34;;;;;;;19.08;7.10;;;;;;;29.75;46.76;101653.59;5068308;28;20055;-77
2021/07/16 09:51:20;;;;;;;13.15;7.20;;;;;;;30.35;48.83;101689.06;5069985;28;20045;-77
2021/07/16 09:53:54;;;;;;;12.77;6.57;;;;;;;30.37;47.06;101676.66;5052178;28;20043;-77
2021/07/16 09:56:22;;;;;;;14.80;6.45;;;;;;;29.87;48.29;101656.13;5069546;28;20037;-77
2021/07/16 09:59:08;;;;;;;15.30;7.18;;;;;;;30.17;47.68;101660.06;5068871;28;20021;-77
2021/07/16 10:01:36;;;;;;;10.70;5.55;;;;;;;31.25;45.97;101697.59;5069913;28;20032;-77
2021/07/16 10:04:03;;;;;;;13.82;5.55;;;;;;;31.51;46.37;101684.59;5052061;28;20037;-74
2021/07/16 10:06:29;;;;;;;17.10;7.43;;;;;;;31.15;44.56;101669.22;5068687;28;20131;-77
2021/07/16 10:08:55;;;;;;;;;;;;;;;31.29;44.75;101673.06;5069348;28;20441;-77
2021/07/16 10:11:22;;;;;;;16.35;6.90;;;;;;;31.70;45.31;101678.44;5068922;28;19916;-77
2021/07/16 10:13:49;;;;;;;15.85;7.00;;;;;;;31.69;45.06;101668.53;5068657;28;20051;-77
2021/07/16 10:16:15;;;;;;;16.00;6.28;;;;;;;30.91;47.46;101625.69;5069266;28;20036;-77
2021/07/16 10:18:40;;;;;;;;;;;;;;;31.40;46.27;101649.88;5069177;28;20139;-77
2021/07/16 10:21:06;;;;;;;14.50;6.65;;;;;;;30.81;46.44;101617.41;5072379;28;19927;-77
2021/07/16 10:23:32;;;;;;;;;;;;;;;31.33;44.07;101636.34;5073068;28;20064;-77
2021/07/16 10:25:58;;;;;;;15.50;5.95;;;;;;;31.33;45.00;101633.59;5071947;28;20237;-77
2021/07/16 10:28:43;;;;;;;17.13;7.03;;;;;;;31.18;44.78;101619.00;5074009;28;20047;-77
2021/07/16 10:31:33;;;;;;;17.90;6.15;;;;;;;31.33;46.06;101622.56;5072536;28;20037;-77
2021/07/16 10:34:03;;;;;;;13.35;5.55;;;;;;;31.26;44.76;101616.50;5073243;28;20040;-77
2021/07/16 10:36:45;;;;;;;12.00;5.82;;;;;;;31.89;45.01;101651.03;5055109;28;20025;-77
2021/07/16 10:39:20;;;;;;;14.50;6.10;;;;;;;31.48;44.94;101631.91;5072324;28;20357;-76
2021/07/16 10:41:45;;;;;;;16.98;7.18;;;;;;;31.35;44.07;101625.00;5071696;28;20066;-77
2021/07/16 10:44:15;;;;;;;;;;;;;;;31.01;45.06;101603.63;5073429;28;20449;-77
2021/07/16 10:46:43;;;;;;;9.77;6.13;;;;;;;31.30;43.90;101638.84;5071632;28;19920;-78
2021/07/16 10:49:10;;;;;;;15.50;6.03;;;;;;;31.22;44.87;101604.38;5073122;28;20568;-78
2021/07/16 10:51:37;;;;;;;10.02;5.90;;;;;;;31.41;46.13;101615.66;5071630;28;20453;-78
2021/07/16 10:54:05;;;;;;;12.05;5.65;;;;;;;31.01;45.74;101589.00;5071848;28;20062;-78
2021/07/16 10:56:45;;;;;;;10.60;5.70;;;;;;;31.73;44.87;101615.22;5054738;28;20044;-77
2021/07/16 10:59:31;;;;;;;15.23;5.78;;;;;;;31.74;44.88;101621.56;5071832;28;20059;-76
2021/07/16 11:01:56;;;;;;;12.23;5.53;;;;;;;31.65;45.99;101601.19;5072379;28;20040;-76
2021/07/16 11:04:29;;;;;;;;;;;;;;;32.18;43.67;101629.88;5071963;28;20025;-76
2021/07/16 11:06:57;;;;;;;14.65;6.35;;;;;;;31.06;44.83;101573.25;5071317;28;20007;-77
2021/07/16 11:09:51;;;;;;;16.92;5.75;;;;;;;31.54;45.66;101623.34;5072491;28;20047;-76
2021/07/16 11:12:32;;;;;;;24.60;6.78;;;;;;;31.19;46.36;101587.56;5041566;28;20068;-76
2021/07/16 11:14:58;;;;;;;14.10;6.00;;;;;;;31.16;45.99;101602.75;5071280;28;20044;-76
2021/07/16 11:17:36;;;;;;;13.07;5.70;;;;;;;31.68;44.96;101609.75;5071881;28;20036;-76
2021/07/16 11:20:20;;;;;;;14.07;6.45;;;;;;;31.02;44.83;101572.16;5072361;28;20048;-76